Terminal Aerodrome Forecast
Issued by NWS

Home | Current Version | Previous Version | Text Only | Print | Product List | Glossary On
Versions: 1 2 3 4 5 6 7 8 9 10 11 12
000
FTUS45 KRIW 210540
TAFBPI
TAF
KBPI 210540Z 2106/2206 32007KT 4SM -SN SCT025 OVC035 WS020/28030KT
      TEMPO 2106/2110 2SM -SN BKN025
     FM211500 32007KT P6SM FEW010 SCT025 BKN040
     FM220300 VRB06KT P6SM -SNRA SCT020 OVC040=

USA.gov is the U.S. government's official web portal to all federal, state and local government web resources and services.